Airports Germany Frankfurt am Main Airport

Frankfurt am Main Airport (EDDF / FRA)

Facts about Frankfurt am Main Airport

Name Frankfurt am Main Airport
City Frankfurt
Country Germany
ICAO code EDDF
IATA code FRA
Elevation 110.9472 meters (364 feet)

Weather

METAR

Metar data retrieved Friday, 19 July 2024 at 22:55 UTC (29 minutes ago)

EDDF 192220Z AUTO 02006KT CAVOK 23/15 Q1015 NOSIG

Live traffic

Navigraph Charts (account required)